KLM77W ENBR-EKCH
Flight info
| Callsign | KLM77W |
|---|---|
| Flight time | N/A |
| Altitude | 39000 |
| Route | TUXIL DCT ZOL DCT TESPI |
| Aircraft | B77W/H-SDE1E2E3FGHIJ2J3J4J5M1RWXY/LB1D1 |
Departure
| Time | N/A |
|---|---|
| Airport | Bergen Airport, Flesland (ENBR) |
Arrival
| Time | 2026-05-03 20:15 |
|---|---|
| Airport | Copenhagen Kastrup Airport (EKCH) |
| Time | Latitude | Longitude | Altitude | Speed | Heading |
|---|---|---|---|---|---|
| 2026-05-03 20:15 | 55.62033 | 12.65962 | 35 ft | 143 kts | 222° |
| 2026-05-03 20:15 | 55.61380 | 12.64956 | 34 ft | 109 kts | 221° |
| 2026-05-03 20:15 | 55.60881 | 12.64184 | 30 ft | 86 kts | 222° |
| 2026-05-03 20:15 | 55.60567 | 12.63694 | 28 ft | 42 kts | 222° |
| 2026-05-03 20:16 | 55.60429 | 12.63477 | 30 ft | 9 kts | 240° |
| 2026-05-03 20:16 | 55.60425 | 12.63378 | 30 ft | 7 kts | 290° |
| 2026-05-03 20:16 | 55.60463 | 12.63290 | 31 ft | 11 kts | 313° |
| 2026-05-03 20:16 | 55.60526 | 12.63232 | 30 ft | 11 kts | 6° |
| 2026-05-03 20:17 | 55.60608 | 12.63319 | 29 ft | 16 kts | 40° |
| 2026-05-03 20:17 | 55.60709 | 12.63457 | 29 ft | 19 kts | 30° |
| 2026-05-03 20:17 | 55.60809 | 12.63576 | 29 ft | 18 kts | 34° |
| 2026-05-03 20:17 | 55.60928 | 12.63702 | 29 ft | 21 kts | 31° |
| 2026-05-03 20:18 | 55.61056 | 12.63850 | 31 ft | 23 kts | 34° |
| 2026-05-03 20:18 | 55.61196 | 12.64013 | 33 ft | 25 kts | 32° |
| 2026-05-03 20:18 | 55.61348 | 12.64186 | 34 ft | 27 kts | 34° |
| 2026-05-03 20:18 | 55.61513 | 12.64380 | 33 ft | 30 kts | 33° |
| 2026-05-03 20:19 | 55.61590 | 12.64470 | 32 ft | 7 kts | 34° |
| 2026-05-03 20:19 | 55.61659 | 12.64549 | 33 ft | 15 kts | 31° |
| 2026-05-03 20:19 | 55.61771 | 12.64671 | 34 ft | 21 kts | 34° |
| 2026-05-03 20:19 | 55.61919 | 12.64845 | 32 ft | 29 kts | 32° |
| 2026-05-03 20:20 | 55.62052 | 12.65001 | 32 ft | 22 kts | 34° |
| 2026-05-03 20:20 | 55.62133 | 12.65090 | 36 ft | 9 kts | 29° |
| 2026-05-03 20:20 | 55.62200 | 12.65161 | 32 ft | 12 kts | 31° |
| 2026-05-03 20:20 | 55.62227 | 12.65174 | 32 ft | 2 kts | 347° |
| 2026-05-03 20:21 | 55.62259 | 12.65121 | 32 ft | 9 kts | 303° |
| 2026-05-03 20:21 | 55.62301 | 12.65003 | 32 ft | 11 kts | 302° |
| 2026-05-03 20:21 | 55.62346 | 12.64880 | 32 ft | 11 kts | 304° |
| 2026-05-03 20:21 | 55.62393 | 12.64758 | 32 ft | 12 kts | 304° |
| 2026-05-03 20:22 | 55.62438 | 12.64641 | 32 ft | 9 kts | 300° |
| 2026-05-03 20:22 | 55.62468 | 12.64555 | 32 ft | 3 kts | 302° |
| 2026-05-03 20:22 | 55.62483 | 12.64514 | 32 ft | 3 kts | 309° |
| 2026-05-03 20:22 | 55.62505 | 12.64501 | 32 ft | 3 kts | 6° |
| 2026-05-03 20:23 | 55.62531 | 12.64516 | 32 ft | 4 kts | 20° |
| 2026-05-03 20:23 | 55.62558 | 12.64534 | 32 ft | 1 kts | 23° |
| 2026-05-03 20:23 | 55.62560 | 12.64536 | 32 ft | 0 kts | 23° |